sensor_id;sensor_type;location;lat;lon;timestamp;temperature;humidity
70726;DHT22;58304;53.104;6.022;2022-07-12T00:02:18;15.20;99.90
70726;DHT22;58304;53.104;6.022;2022-07-12T00:04:45;15.20;99.90
70726;DHT22;58304;53.104;6.022;2022-07-12T00:07:11;15.20;99.90
70726;DHT22;58304;53.104;6.022;2022-07-12T00:09:37;15.20;99.90
70726;DHT22;58304;53.104;6.022;2022-07-12T00:12:03;15.20;99.90
70726;DHT22;58304;53.104;6.022;2022-07-12T00:14:28;15.20;99.90
70726;DHT22;58304;53.104;6.022;2022-07-12T00:16:54;15.20;99.90
70726;DHT22;58304;53.104;6.022;2022-07-12T00:19:19;15.20;99.90
70726;DHT22;58304;53.104;6.022;2022-07-12T00:21:45;15.20;99.90
70726;DHT22;58304;53.104;6.022;2022-07-12T00:24:12;15.20;99.90
70726;DHT22;58304;53.104;6.022;2022-07-12T00:26:37;15.10;99.90
70726;DHT22;58304;53.104;6.022;2022-07-12T00:29:03;15.20;99.90
70726;DHT22;58304;53.104;6.022;2022-07-12T00:31:29;15.20;99.90
70726;DHT22;58304;53.104;6.022;2022-07-12T00:33:54;15.20;99.90
70726;DHT22;58304;53.104;6.022;2022-07-12T00:36:20;15.30;99.90
70726;DHT22;58304;53.104;6.022;2022-07-12T00:38:46;15.20;99.90
70726;DHT22;58304;53.104;6.022;2022-07-12T00:41:12;15.30;99.90
70726;DHT22;58304;53.104;6.022;2022-07-12T00:43:37;15.30;99.90
70726;DHT22;58304;53.104;6.022;2022-07-12T00:46:03;15.30;99.90
70726;DHT22;58304;53.104;6.022;2022-07-12T00:48:31;15.20;99.90
70726;DHT22;58304;53.104;6.022;2022-07-12T00:50:56;15.20;99.90
70726;DHT22;58304;53.104;6.022;2022-07-12T00:53:22;15.30;99.90
70726;DHT22;58304;53.104;6.022;2022-07-12T00:55:56;15.20;99.90
70726;DHT22;58304;53.104;6.022;2022-07-12T00:58:23;15.40;99.90
70726;DHT22;58304;53.104;6.022;2022-07-12T01:00:49;15.30;99.90
70726;DHT22;58304;53.104;6.022;2022-07-12T01:03:15;15.30;99.90
70726;DHT22;58304;53.104;6.022;2022-07-12T01:05:41;15.30;99.90
70726;DHT22;58304;53.104;6.022;2022-07-12T01:08:07;15.30;99.90
70726;DHT22;58304;53.104;6.022;2022-07-12T01:10:33;15.30;99.90
70726;DHT22;58304;53.104;6.022;2022-07-12T01:13:01;15.20;99.90
70726;DHT22;58304;53.104;6.022;2022-07-12T01:15:28;15.20;99.90
70726;DHT22;58304;53.104;6.022;2022-07-12T01:17:55;15.20;99.90
70726;DHT22;58304;53.104;6.022;2022-07-12T01:20:22;15.20;99.90
70726;DHT22;58304;53.104;6.022;2022-07-12T01:22:55;15.20;99.90
70726;DHT22;58304;53.104;6.022;2022-07-12T01:25:23;15.20;99.90
70726;DHT22;58304;53.104;6.022;2022-07-12T01:27:48;15.20;99.90
70726;DHT22;58304;53.104;6.022;2022-07-12T01:30:14;15.20;99.90
70726;DHT22;58304;53.104;6.022;2022-07-12T01:32:40;15.30;99.90
70726;DHT22;58304;53.104;6.022;2022-07-12T01:35:06;15.20;99.90
70726;DHT22;58304;53.104;6.022;2022-07-12T01:37:37;15.20;99.90
70726;DHT22;58304;53.104;6.022;2022-07-12T01:40:05;15.20;99.90
70726;DHT22;58304;53.104;6.022;2022-07-12T01:42:31;15.10;99.90
70726;DHT22;58304;53.104;6.022;2022-07-12T01:44:58;15.10;99.90
70726;DHT22;58304;53.104;6.022;2022-07-12T01:47:26;15.00;99.90
70726;DHT22;58304;53.104;6.022;2022-07-12T01:49:51;14.90;99.90
70726;DHT22;58304;53.104;6.022;2022-07-12T01:52:19;14.90;99.90
70726;DHT22;58304;53.104;6.022;2022-07-12T01:54:45;15.00;99.90
70726;DHT22;58304;53.104;6.022;2022-07-12T01:57:10;14.80;99.90
70726;DHT22;58304;53.104;6.022;2022-07-12T01:59:36;14.70;99.90
70726;DHT22;58304;53.104;6.022;2022-07-12T02:02:03;14.70;99.90
70726;DHT22;58304;53.104;6.022;2022-07-12T02:04:29;14.70;99.90
70726;DHT22;58304;53.104;6.022;2022-07-12T02:06:55;14.80;99.90
70726;DHT22;58304;53.104;6.022;2022-07-12T02:09:21;14.80;99.90
70726;DHT22;58304;53.104;6.022;2022-07-12T02:11:47;14.70;99.90
70726;DHT22;58304;53.104;6.022;2022-07-12T02:14:14;14.70;99.90
70726;DHT22;58304;53.104;6.022;2022-07-12T02:16:40;14.60;99.90
70726;DHT22;58304;53.104;6.022;2022-07-12T02:19:06;14.60;99.90
70726;DHT22;58304;53.104;6.022;2022-07-12T02:21:32;14.60;99.90
70726;DHT22;58304;53.104;6.022;2022-07-12T02:23:59;14.50;99.90
70726;DHT22;58304;53.104;6.022;2022-07-12T02:26:25;14.50;99.90
70726;DHT22;58304;53.104;6.022;2022-07-12T02:28:52;14.50;99.90
70726;DHT22;58304;53.104;6.022;2022-07-12T02:31:18;14.50;99.90
70726;DHT22;58304;53.104;6.022;2022-07-12T02:33:43;14.50;99.90
70726;DHT22;58304;53.104;6.022;2022-07-12T02:36:09;14.40;99.90
70726;DHT22;58304;53.104;6.022;2022-07-12T02:38:35;14.40;99.90
70726;DHT22;58304;53.104;6.022;2022-07-12T02:41:01;14.30;99.90
70726;DHT22;58304;53.104;6.022;2022-07-12T02:43:28;14.30;99.90
70726;DHT22;58304;53.104;6.022;2022-07-12T02:46:02;14.30;99.90
70726;DHT22;58304;53.104;6.022;2022-07-12T02:48:28;14.30;99.90
70726;DHT22;58304;53.104;6.022;2022-07-12T02:50:53;14.30;99.90
70726;DHT22;58304;53.104;6.022;2022-07-12T02:53:19;14.30;99.90
70726;DHT22;58304;53.104;6.022;2022-07-12T02:55:45;14.30;99.90
70726;DHT22;58304;53.104;6.022;2022-07-12T02:58:11;14.30;99.90
70726;DHT22;58304;53.104;6.022;2022-07-12T03:00:37;14.30;99.90
70726;DHT22;58304;53.104;6.022;2022-07-12T03:03:04;14.30;99.90
70726;DHT22;58304;53.104;6.022;2022-07-12T03:05:29;14.30;99.90
70726;DHT22;58304;53.104;6.022;2022-07-12T03:07:55;14.30;99.90
70726;DHT22;58304;53.104;6.022;2022-07-12T03:10:21;14.30;99.90
70726;DHT22;58304;53.104;6.022;2022-07-12T03:12:46;14.20;99.90
70726;DHT22;58304;53.104;6.022;2022-07-12T03:15:12;14.20;99.90
70726;DHT22;58304;53.104;6.022;2022-07-12T03:17:38;14.20;99.90
70726;DHT22;58304;53.104;6.022;2022-07-12T03:20:04;14.20;99.90
70726;DHT22;58304;53.104;6.022;2022-07-12T03:22:37;14.20;99.90
70726;DHT22;58304;53.104;6.022;2022-07-12T03:25:03;14.10;99.90
70726;DHT22;58304;53.104;6.022;2022-07-12T03:27:28;14.10;99.90
70726;DHT22;58304;53.104;6.022;2022-07-12T03:29:57;14.20;99.90
70726;DHT22;58304;53.104;6.022;2022-07-12T03:32:23;14.10;99.90
70726;DHT22;58304;53.104;6.022;2022-07-12T03:34:49;14.10;99.90
70726;DHT22;58304;53.104;6.022;2022-07-12T03:37:14;14.10;99.90
70726;DHT22;58304;53.104;6.022;2022-07-12T03:39:40;14.10;99.90
70726;DHT22;58304;53.104;6.022;2022-07-12T03:42:06;14.10;99.90
70726;DHT22;58304;53.104;6.022;2022-07-12T03:44:31;14.00;99.90
70726;DHT22;58304;53.104;6.022;2022-07-12T03:46:59;14.00;99.90
70726;DHT22;58304;53.104;6.022;2022-07-12T03:49:25;14.10;99.90
70726;DHT22;58304;53.104;6.022;2022-07-12T03:51:51;14.00;99.90
70726;DHT22;58304;53.104;6.022;2022-07-12T03:54:16;14.00;99.90
70726;DHT22;58304;53.104;6.022;2022-07-12T03:56:42;14.00;99.90
70726;DHT22;58304;53.104;6.022;2022-07-12T03:59:26;14.00;99.90
70726;DHT22;58304;53.104;6.022;2022-07-12T04:01:52;14.00;99.90
70726;DHT22;58304;53.104;6.022;2022-07-12T04:04:18;14.00;99.90
70726;DHT22;58304;53.104;6.022;2022-07-12T04:06:44;14.00;99.90
70726;DHT22;58304;53.104;6.022;2022-07-12T04:09:09;14.00;99.90
70726;DHT22;58304;53.104;6.022;2022-07-12T04:11:35;14.00;99.90
70726;DHT22;58304;53.104;6.022;2022-07-12T04:14:01;14.00;99.90
70726;DHT22;58304;53.104;6.022;2022-07-12T04:16:27;14.00;99.90
70726;DHT22;58304;53.104;6.022;2022-07-12T04:18:53;14.00;99.90
70726;DHT22;58304;53.104;6.022;2022-07-12T04:21:19;14.00;99.90
70726;DHT22;58304;53.104;6.022;2022-07-12T04:23:45;14.00;99.90
70726;DHT22;58304;53.104;6.022;2022-07-12T04:26:10;14.00;99.90
70726;DHT22;58304;53.104;6.022;2022-07-12T04:28:36;13.90;99.90
70726;DHT22;58304;53.104;6.022;2022-07-12T04:31:02;13.90;99.90
70726;DHT22;58304;53.104;6.022;2022-07-12T04:33:28;13.90;99.90
70726;DHT22;58304;53.104;6.022;2022-07-12T04:35:54;14.00;99.90
70726;DHT22;58304;53.104;6.022;2022-07-12T04:38:20;14.00;99.90
70726;DHT22;58304;53.104;6.022;2022-07-12T04:40:45;14.10;99.90
70726;DHT22;58304;53.104;6.022;2022-07-12T04:43:11;14.10;99.90
70726;DHT22;58304;53.104;6.022;2022-07-12T04:45:37;14.20;99.90
70726;DHT22;58304;53.104;6.022;2022-07-12T04:48:03;14.30;99.90
70726;DHT22;58304;53.104;6.022;2022-07-12T04:50:28;14.30;99.90
70726;DHT22;58304;53.104;6.022;2022-07-12T04:52:54;14.50;99.90
70726;DHT22;58304;53.104;6.022;2022-07-12T04:55:20;14.60;99.90
70726;DHT22;58304;53.104;6.022;2022-07-12T04:57:45;14.80;99.90
70726;DHT22;58304;53.104;6.022;2022-07-12T05:00:11;14.90;99.90
70726;DHT22;58304;53.104;6.022;2022-07-12T05:02:37;15.10;99.90
70726;DHT22;58304;53.104;6.022;2022-07-12T05:05:03;15.30;99.90
70726;DHT22;58304;53.104;6.022;2022-07-12T05:07:29;15.40;99.90
70726;DHT22;58304;53.104;6.022;2022-07-12T05:09:55;15.50;99.90
70726;DHT22;58304;53.104;6.022;2022-07-12T05:12:20;15.60;99.90
70726;DHT22;58304;53.104;6.022;2022-07-12T05:14:46;15.60;99.90
70726;DHT22;58304;53.104;6.022;2022-07-12T05:17:12;15.60;99.90
70726;DHT22;58304;53.104;6.022;2022-07-12T05:19:38;15.60;99.90
70726;DHT22;58304;53.104;6.022;2022-07-12T05:22:04;15.60;99.90
70726;DHT22;58304;53.104;6.022;2022-07-12T05:24:32;15.70;99.90
70726;DHT22;58304;53.104;6.022;2022-07-12T05:26:58;15.60;99.90
70726;DHT22;58304;53.104;6.022;2022-07-12T05:29:24;15.60;99.90
70726;DHT22;58304;53.104;6.022;2022-07-12T05:31:50;15.60;99.90
70726;DHT22;58304;53.104;6.022;2022-07-12T05:34:15;15.80;99.90
70726;DHT22;58304;53.104;6.022;2022-07-12T05:36:41;15.80;99.90
70726;DHT22;58304;53.104;6.022;2022-07-12T05:39:09;15.90;99.90
70726;DHT22;58304;53.104;6.022;2022-07-12T05:41:34;16.00;99.90
70726;DHT22;58304;53.104;6.022;2022-07-12T05:44:00;16.10;99.90
70726;DHT22;58304;53.104;6.022;2022-07-12T05:46:25;16.10;99.90
70726;DHT22;58304;53.104;6.022;2022-07-12T05:48:53;16.20;99.90
70726;DHT22;58304;53.104;6.022;2022-07-12T05:51:19;16.30;99.90
70726;DHT22;58304;53.104;6.022;2022-07-12T05:54:03;16.30;99.90
70726;DHT22;58304;53.104;6.022;2022-07-12T05:56:30;16.50;99.90
70726;DHT22;58304;53.104;6.022;2022-07-12T05:58:55;16.50;99.90
70726;DHT22;58304;53.104;6.022;2022-07-12T06:01:21;16.60;99.90
70726;DHT22;58304;53.104;6.022;2022-07-12T06:03:47;16.60;99.90
70726;DHT22;58304;53.104;6.022;2022-07-12T06:06:12;16.80;99.90
70726;DHT22;58304;53.104;6.022;2022-07-12T06:08:38;16.80;99.90
70726;DHT22;58304;53.104;6.022;2022-07-12T06:11:04;16.90;99.90
70726;DHT22;58304;53.104;6.022;2022-07-12T06:13:30;17.10;99.90
70726;DHT22;58304;53.104;6.022;2022-07-12T06:15:56;17.30;99.90
70726;DHT22;58304;53.104;6.022;2022-07-12T06:18:22;17.40;99.90
70726;DHT22;58304;53.104;6.022;2022-07-12T06:20:47;17.50;99.90
70726;DHT22;58304;53.104;6.022;2022-07-12T06:23:13;17.70;99.90
70726;DHT22;58304;53.104;6.022;2022-07-12T06:25:39;17.70;99.90
70726;DHT22;58304;53.104;6.022;2022-07-12T06:28:05;17.80;99.90
70726;DHT22;58304;53.104;6.022;2022-07-12T06:30:31;18.00;99.90
70726;DHT22;58304;53.104;6.022;2022-07-12T06:32:57;17.90;99.90
70726;DHT22;58304;53.104;6.022;2022-07-12T06:35:22;18.10;99.90
70726;DHT22;58304;53.104;6.022;2022-07-12T06:37:50;18.40;99.90
70726;DHT22;58304;53.104;6.022;2022-07-12T06:40:16;18.70;99.90
70726;DHT22;58304;53.104;6.022;2022-07-12T06:42:44;18.90;99.90
70726;DHT22;58304;53.104;6.022;2022-07-12T06:45:10;19.10;99.90
70726;DHT22;58304;53.104;6.022;2022-07-12T06:47:36;19.10;99.90
70726;DHT22;58304;53.104;6.022;2022-07-12T06:50:05;19.10;99.90
70726;DHT22;58304;53.104;6.022;2022-07-12T06:52:31;19.30;99.90
70726;DHT22;58304;53.104;6.022;2022-07-12T06:54:58;19.30;99.90
70726;DHT22;58304;53.104;6.022;2022-07-12T06:57:23;19.40;99.90
70726;DHT22;58304;53.104;6.022;2022-07-12T06:59:50;19.30;99.90
70726;DHT22;58304;53.104;6.022;2022-07-12T07:02:17;19.30;99.90
70726;DHT22;58304;53.104;6.022;2022-07-12T07:04:43;19.60;99.90
70726;DHT22;58304;53.104;6.022;2022-07-12T07:07:09;19.70;99.90
70726;DHT22;58304;53.104;6.022;2022-07-12T07:09:34;20.00;99.90
70726;DHT22;58304;53.104;6.022;2022-07-12T07:12:01;20.10;99.90
70726;DHT22;58304;53.104;6.022;2022-07-12T07:14:26;20.30;99.90
70726;DHT22;58304;53.104;6.022;2022-07-12T07:16:56;20.60;99.90
70726;DHT22;58304;53.104;6.022;2022-07-12T07:19:22;20.80;99.90
70726;DHT22;58304;53.104;6.022;2022-07-12T07:21:50;21.20;99.90
70726;DHT22;58304;53.104;6.022;2022-07-12T07:24:17;21.00;99.90
70726;DHT22;58304;53.104;6.022;2022-07-12T07:26:48;21.60;99.90
70726;DHT22;58304;53.104;6.022;2022-07-12T07:29:15;21.80;99.90
70726;DHT22;58304;53.104;6.022;2022-07-12T07:32:07;21.90;99.90
70726;DHT22;58304;53.104;6.022;2022-07-12T07:34:34;21.70;99.90
70726;DHT22;58304;53.104;6.022;2022-07-12T07:37:00;22.00;99.90
70726;DHT22;58304;53.104;6.022;2022-07-12T07:39:26;22.00;99.90
70726;DHT22;58304;53.104;6.022;2022-07-12T07:41:52;22.00;99.90
70726;DHT22;58304;53.104;6.022;2022-07-12T07:44:19;22.10;99.90
70726;DHT22;58304;53.104;6.022;2022-07-12T07:46:44;22.20;99.90
70726;DHT22;58304;53.104;6.022;2022-07-12T07:49:20;22.40;99.90
70726;DHT22;58304;53.104;6.022;2022-07-12T07:51:49;22.70;99.90
70726;DHT22;58304;53.104;6.022;2022-07-12T07:54:15;22.60;99.90
70726;DHT22;58304;53.104;6.022;2022-07-12T07:56:41;22.70;99.90
70726;DHT22;58304;53.104;6.022;2022-07-12T07:59:07;22.80;99.90
70726;DHT22;58304;53.104;6.022;2022-07-12T08:01:35;22.80;99.90
70726;DHT22;58304;53.104;6.022;2022-07-12T08:04:14;22.90;99.90
70726;DHT22;58304;53.104;6.022;2022-07-12T08:06:41;22.70;99.90
70726;DHT22;58304;53.104;6.022;2022-07-12T08:09:10;22.80;99.90
70726;DHT22;58304;53.104;6.022;2022-07-12T08:11:36;23.10;99.90
70726;DHT22;58304;53.104;6.022;2022-07-12T08:14:03;22.90;99.90
70726;DHT22;58304;53.104;6.022;2022-07-12T08:16:29;23.10;99.90
70726;DHT22;58304;53.104;6.022;2022-07-12T08:18:58;23.40;99.90
70726;DHT22;58304;53.104;6.022;2022-07-12T08:21:24;23.80;99.90
70726;DHT22;58304;53.104;6.022;2022-07-12T08:23:50;24.60;99.90
70726;DHT22;58304;53.104;6.022;2022-07-12T08:26:17;24.60;99.90
70726;DHT22;58304;53.104;6.022;2022-07-12T08:28:43;25.20;99.90
70726;DHT22;58304;53.104;6.022;2022-07-12T08:31:09;25.50;99.90
70726;DHT22;58304;53.104;6.022;2022-07-12T08:33:35;26.50;99.90
70726;DHT22;58304;53.104;6.022;2022-07-12T08:36:01;27.30;99.90
70726;DHT22;58304;53.104;6.022;2022-07-12T08:38:26;27.60;99.90
70726;DHT22;58304;53.104;6.022;2022-07-12T08:40:52;27.60;99.90
70726;DHT22;58304;53.104;6.022;2022-07-12T08:43:18;27.10;99.90
70726;DHT22;58304;53.104;6.022;2022-07-12T08:45:44;27.60;99.90
70726;DHT22;58304;53.104;6.022;2022-07-12T08:48:09;28.00;99.90
70726;DHT22;58304;53.104;6.022;2022-07-12T08:50:37;28.50;99.90
70726;DHT22;58304;53.104;6.022;2022-07-12T08:53:10;28.30;99.90
70726;DHT22;58304;53.104;6.022;2022-07-12T08:55:36;28.80;99.90
70726;DHT22;58304;53.104;6.022;2022-07-12T08:58:04;29.00;99.90
70726;DHT22;58304;53.104;6.022;2022-07-12T09:00:32;29.00;99.90
70726;DHT22;58304;53.104;6.022;2022-07-12T09:03:03;29.50;99.90
70726;DHT22;58304;53.104;6.022;2022-07-12T09:05:30;29.40;99.90
70726;DHT22;58304;53.104;6.022;2022-07-12T09:08:04;29.50;99.90
70726;DHT22;58304;53.104;6.022;2022-07-12T09:10:30;29.50;99.90
70726;DHT22;58304;53.104;6.022;2022-07-12T09:12:59;29.90;99.90
70726;DHT22;58304;53.104;6.022;2022-07-12T09:15:25;30.20;99.90
70726;DHT22;58304;53.104;6.022;2022-07-12T09:18:05;29.80;99.90
70726;DHT22;58304;53.104;6.022;2022-07-12T09:20:40;30.30;99.90
70726;DHT22;58304;53.104;6.022;2022-07-12T09:23:08;31.10;99.90
70726;DHT22;58304;53.104;6.022;2022-07-12T09:25:35;31.00;99.90
70726;DHT22;58304;53.104;6.022;2022-07-12T09:28:06;30.60;99.90
70726;DHT22;58304;53.104;6.022;2022-07-12T09:30:32;30.40;99.90
70726;DHT22;58304;53.104;6.022;2022-07-12T09:33:02;30.70;99.90
70726;DHT22;58304;53.104;6.022;2022-07-12T09:35:59;30.80;99.90
70726;DHT22;58304;53.104;6.022;2022-07-12T09:38:51;30.70;99.90
70726;DHT22;58304;53.104;6.022;2022-07-12T09:41:27;31.00;99.90
70726;DHT22;58304;53.104;6.022;2022-07-12T09:43:53;31.30;99.90
70726;DHT22;58304;53.104;6.022;2022-07-12T09:46:19;31.60;99.90
70726;DHT22;58304;53.104;6.022;2022-07-12T09:48:45;31.40;99.90
70726;DHT22;58304;53.104;6.022;2022-07-12T09:51:16;32.00;99.90
70726;DHT22;58304;53.104;6.022;2022-07-12T09:53:49;32.00;99.40
70726;DHT22;58304;53.104;6.022;2022-07-12T09:56:18;31.80;99.50
70726;DHT22;58304;53.104;6.022;2022-07-12T09:58:52;31.50;99.70
70726;DHT22;58304;53.104;6.022;2022-07-12T10:01:18;30.90;99.90
70726;DHT22;58304;53.104;6.022;2022-07-12T10:03:47;31.00;99.90
70726;DHT22;58304;53.104;6.022;2022-07-12T10:06:16;30.70;99.70
70726;DHT22;58304;53.104;6.022;2022-07-12T10:08:47;31.20;99.90
70726;DHT22;58304;53.104;6.022;2022-07-12T10:11:13;31.20;99.90
70726;DHT22;58304;53.104;6.022;2022-07-12T10:13:40;31.30;99.90
70726;DHT22;58304;53.104;6.022;2022-07-12T10:16:08;31.60;99.90
70726;DHT22;58304;53.104;6.022;2022-07-12T10:18:35;31.10;99.20
70726;DHT22;58304;53.104;6.022;2022-07-12T10:21:17;31.10;99.70
70726;DHT22;58304;53.104;6.022;2022-07-12T10:23:44;30.70;99.90
70726;DHT22;58304;53.104;6.022;2022-07-12T10:29:05;30.70;99.80
70726;DHT22;58304;53.104;6.022;2022-07-12T10:31:38;30.70;99.30
70726;DHT22;58304;53.104;6.022;2022-07-12T10:34:20;31.00;99.90
70726;DHT22;58304;53.104;6.022;2022-07-12T10:39:26;31.90;99.00
70726;DHT22;58304;53.104;6.022;2022-07-12T10:44:45;32.30;97.30
70726;DHT22;58304;53.104;6.022;2022-07-12T10:47:15;32.00;96.80
70726;DHT22;58304;53.104;6.022;2022-07-12T10:49:50;32.10;96.50
70726;DHT22;58304;53.104;6.022;2022-07-12T10:52:23;31.60;96.00
70726;DHT22;58304;53.104;6.022;2022-07-12T10:57:44;31.10;96.20
70726;DHT22;58304;53.104;6.022;2022-07-12T11:00:11;30.90;95.90
70726;DHT22;58304;53.104;6.022;2022-07-12T11:02:37;30.70;96.10
70726;DHT22;58304;53.104;6.022;2022-07-12T11:05:03;30.50;95.80
70726;DHT22;58304;53.104;6.022;2022-07-12T11:07:29;30.50;95.80
70726;DHT22;58304;53.104;6.022;2022-07-12T11:09:56;30.50;95.50
70726;DHT22;58304;53.104;6.022;2022-07-12T11:12:29;30.60;95.90
70726;DHT22;58304;53.104;6.022;2022-07-12T11:15:02;30.80;96.10
70726;DHT22;58304;53.104;6.022;2022-07-12T11:17:30;30.90;95.90
70726;DHT22;58304;53.104;6.022;2022-07-12T11:20:12;31.10;95.30
70726;DHT22;58304;53.104;6.022;2022-07-12T11:22:40;31.00;95.10
70726;DHT22;58304;53.104;6.022;2022-07-12T11:25:10;30.80;94.50
70726;DHT22;58304;53.104;6.022;2022-07-12T11:27:37;30.80;95.30
70726;DHT22;58304;53.104;6.022;2022-07-12T11:30:04;30.80;95.30
70726;DHT22;58304;53.104;6.022;2022-07-12T11:32:35;30.90;94.70
70726;DHT22;58304;53.104;6.022;2022-07-12T11:35:06;30.80;93.80
70726;DHT22;58304;53.104;6.022;2022-07-12T11:37:53;30.80;94.90
70726;DHT22;58304;53.104;6.022;2022-07-12T11:40:30;31.00;94.00
70726;DHT22;58304;53.104;6.022;2022-07-12T11:43:00;30.90;95.60
70726;DHT22;58304;53.104;6.022;2022-07-12T11:45:28;31.20;95.00
70726;DHT22;58304;53.104;6.022;2022-07-12T11:47:55;31.40;94.50
70726;DHT22;58304;53.104;6.022;2022-07-12T11:50:22;31.50;94.10
70726;DHT22;58304;53.104;6.022;2022-07-12T11:52:48;31.40;93.90
70726;DHT22;58304;53.104;6.022;2022-07-12T11:55:17;31.60;93.80
70726;DHT22;58304;53.104;6.022;2022-07-12T11:57:45;31.70;91.60
70726;DHT22;58304;53.104;6.022;2022-07-12T12:02:40;31.80;91.50
70726;DHT22;58304;53.104;6.022;2022-07-12T12:05:09;31.80;91.70
70726;DHT22;58304;53.104;6.022;2022-07-12T12:07:35;32.20;90.70
70726;DHT22;58304;53.104;6.022;2022-07-12T12:10:04;32.10;90.30
70726;DHT22;58304;53.104;6.022;2022-07-12T12:15:11;32.20;89.10
70726;DHT22;58304;53.104;6.022;2022-07-12T12:20:20;32.20;88.50
70726;DHT22;58304;53.104;6.022;2022-07-12T12:22:47;32.00;88.00
70726;DHT22;58304;53.104;6.022;2022-07-12T12:25:14;32.10;87.20
70726;DHT22;58304;53.104;6.022;2022-07-12T12:27:45;32.00;87.30
70726;DHT22;58304;53.104;6.022;2022-07-12T12:30:12;32.10;87.60
70726;DHT22;58304;53.104;6.022;2022-07-12T12:32:53;32.30;86.50
70726;DHT22;58304;53.104;6.022;2022-07-12T12:35:33;32.50;86.30
70726;DHT22;58304;53.104;6.022;2022-07-12T12:38:01;32.50;86.50
70726;DHT22;58304;53.104;6.022;2022-07-12T12:40:32;32.60;85.20
70726;DHT22;58304;53.104;6.022;2022-07-12T12:43:11;32.50;84.50
70726;DHT22;58304;53.104;6.022;2022-07-12T12:48:25;32.10;84.30
70726;DHT22;58304;53.104;6.022;2022-07-12T12:53:33;32.10;82.70
70726;DHT22;58304;53.104;6.022;2022-07-12T12:56:04;31.90;80.50
70726;DHT22;58304;53.104;6.022;2022-07-12T12:58:30;31.80;80.50
70726;DHT22;58304;53.104;6.022;2022-07-12T13:00:56;31.60;81.20
70726;DHT22;58304;53.104;6.022;2022-07-12T13:03:23;31.50;81.50
70726;DHT22;58304;53.104;6.022;2022-07-12T13:05:52;31.50;80.90
70726;DHT22;58304;53.104;6.022;2022-07-12T13:08:18;31.50;77.80
70726;DHT22;58304;53.104;6.022;2022-07-12T13:10:44;31.30;75.60
70726;DHT22;58304;53.104;6.022;2022-07-12T13:13:13;31.10;74.70
70726;DHT22;58304;53.104;6.022;2022-07-12T13:15:39;31.00;73.90
70726;DHT22;58304;53.104;6.022;2022-07-12T13:18:06;30.90;72.60
70726;DHT22;58304;53.104;6.022;2022-07-12T13:20:32;30.90;72.30
70726;DHT22;58304;53.104;6.022;2022-07-12T13:23:01;30.70;73.00
70726;DHT22;58304;53.104;6.022;2022-07-12T13:25:28;30.50;74.10
70726;DHT22;58304;53.104;6.022;2022-07-12T13:27:56;30.50;74.70
70726;DHT22;58304;53.104;6.022;2022-07-12T13:30:22;30.40;74.70
70726;DHT22;58304;53.104;6.022;2022-07-12T13:32:51;30.30;74.60
70726;DHT22;58304;53.104;6.022;2022-07-12T13:35:16;30.20;73.80
70726;DHT22;58304;53.104;6.022;2022-07-12T13:37:43;30.00;73.90
70726;DHT22;58304;53.104;6.022;2022-07-12T13:40:09;29.80;74.80
70726;DHT22;58304;53.104;6.022;2022-07-12T13:42:43;29.70;75.00
70726;DHT22;58304;53.104;6.022;2022-07-12T13:45:12;29.60;76.40
70726;DHT22;58304;53.104;6.022;2022-07-12T13:47:39;29.50;78.60
70726;DHT22;58304;53.104;6.022;2022-07-12T13:50:06;29.60;79.30
70726;DHT22;58304;53.104;6.022;2022-07-12T13:52:32;29.70;80.40
70726;DHT22;58304;53.104;6.022;2022-07-12T13:54:58;29.70;80.10
70726;DHT22;58304;53.104;6.022;2022-07-12T13:57:24;29.70;81.10
70726;DHT22;58304;53.104;6.022;2022-07-12T13:59:50;29.80;81.50
70726;DHT22;58304;53.104;6.022;2022-07-12T14:02:17;29.90;81.10
70726;DHT22;58304;53.104;6.022;2022-07-12T14:04:43;29.90;80.00
70726;DHT22;58304;53.104;6.022;2022-07-12T14:07:08;29.90;79.00
70726;DHT22;58304;53.104;6.022;2022-07-12T14:09:34;29.70;78.90
70726;DHT22;58304;53.104;6.022;2022-07-12T14:12:00;29.60;79.00
70726;DHT22;58304;53.104;6.022;2022-07-12T14:14:30;29.50;79.00
70726;DHT22;58304;53.104;6.022;2022-07-12T14:17:15;29.50;79.90
70726;DHT22;58304;53.104;6.022;2022-07-12T14:19:40;29.40;80.20
70726;DHT22;58304;53.104;6.022;2022-07-12T14:22:06;29.40;79.70
70726;DHT22;58304;53.104;6.022;2022-07-12T14:24:32;29.30;79.10
70726;DHT22;58304;53.104;6.022;2022-07-12T14:26:57;29.30;78.50
70726;DHT22;58304;53.104;6.022;2022-07-12T14:29:23;29.20;79.30
70726;DHT22;58304;53.104;6.022;2022-07-12T14:31:49;29.40;78.30
70726;DHT22;58304;53.104;6.022;2022-07-12T14:34:15;29.30;77.80
70726;DHT22;58304;53.104;6.022;2022-07-12T14:36:41;29.20;77.90
70726;DHT22;58304;53.104;6.022;2022-07-12T14:39:07;29.10;78.60
70726;DHT22;58304;53.104;6.022;2022-07-12T14:41:32;29.00;79.30
70726;DHT22;58304;53.104;6.022;2022-07-12T14:43:58;29.00;79.40
70726;DHT22;58304;53.104;6.022;2022-07-12T14:46:24;28.90;79.40
70726;DHT22;58304;53.104;6.022;2022-07-12T14:48:50;28.80;80.40
70726;DHT22;58304;53.104;6.022;2022-07-12T14:51:15;28.40;81.40
70726;DHT22;58304;53.104;6.022;2022-07-12T14:53:41;28.30;83.40
70726;DHT22;58304;53.104;6.022;2022-07-12T14:56:07;28.10;84.20
70726;DHT22;58304;53.104;6.022;2022-07-12T14:58:32;28.10;84.60
70726;DHT22;58304;53.104;6.022;2022-07-12T15:00:58;28.00;85.70
70726;DHT22;58304;53.104;6.022;2022-07-12T15:03:24;28.00;86.40
70726;DHT22;58304;53.104;6.022;2022-07-12T15:05:52;28.00;86.90
70726;DHT22;58304;53.104;6.022;2022-07-12T15:08:20;28.00;88.00
70726;DHT22;58304;53.104;6.022;2022-07-12T15:10:45;28.00;89.00
70726;DHT22;58304;53.104;6.022;2022-07-12T15:16:08;28.00;90.00
70726;DHT22;58304;53.104;6.022;2022-07-12T15:18:33;27.80;89.70
70726;DHT22;58304;53.104;6.022;2022-07-12T15:21:02;27.80;90.20
70726;DHT22;58304;53.104;6.022;2022-07-12T15:23:30;27.70;90.50
70726;DHT22;58304;53.104;6.022;2022-07-12T15:25:57;27.60;90.80
70726;DHT22;58304;53.104;6.022;2022-07-12T15:28:27;27.50;91.10
70726;DHT22;58304;53.104;6.022;2022-07-12T15:30:57;27.50;91.10
70726;DHT22;58304;53.104;6.022;2022-07-12T15:33:23;27.40;91.50
70726;DHT22;58304;53.104;6.022;2022-07-12T15:35:52;27.60;91.50
70726;DHT22;58304;53.104;6.022;2022-07-12T15:38:18;27.60;91.40
70726;DHT22;58304;53.104;6.022;2022-07-12T15:40:43;27.50;91.20
70726;DHT22;58304;53.104;6.022;2022-07-12T15:43:09;27.50;91.40
70726;DHT22;58304;53.104;6.022;2022-07-12T15:45:37;27.50;91.20
70726;DHT22;58304;53.104;6.022;2022-07-12T15:48:03;27.50;91.20
70726;DHT22;58304;53.104;6.022;2022-07-12T15:50:29;27.40;91.00
70726;DHT22;58304;53.104;6.022;2022-07-12T15:52:54;27.40;91.20
70726;DHT22;58304;53.104;6.022;2022-07-12T15:55:39;27.40;91.70
70726;DHT22;58304;53.104;6.022;2022-07-12T15:58:05;27.20;92.20
70726;DHT22;58304;53.104;6.022;2022-07-12T16:00:32;27.10;92.70